Time;durP1;ratioP1;P1;durP2;ratioP2;P2;SDS_P1;SDS_P2;PMS_P1;PMS_P2;Temp;Humidity;BMP_temperature;BMP_pressure;BME280_temperature;BME280_humidity;BME280_pressure;Samples;Min_cycle;Max_cycle;Signal;HPM_P1;HPM_P2
2022/05/20 00:01:25;;;;;;;;;;;24.50;57.00;;;;;;5001170;28;19918;-69
2022/05/20 00:03:51;;;;;;;;;;;24.50;57.00;;;;;;4997515;28;20043;-68
2022/05/20 00:06:17;;;;;;;;;;;24.40;57.10;;;;;;4983181;28;19924;-66
2022/05/20 00:08:43;;;;;;;;;;;24.50;57.00;;;;;;4985859;28;19918;-69
2022/05/20 00:11:09;;;;;;;;;;;24.50;57.10;;;;;;4999333;28;20000;-67
2022/05/20 00:13:34;;;;;;;;;;;24.40;57.00;;;;;;4999134;28;20424;-66
2022/05/20 00:15:59;;;;;;;;;;;24.40;57.00;;;;;;4981307;28;19917;-67
2022/05/20 00:18:25;;;;;;;;;;;24.40;57.00;;;;;;4982894;28;19929;-67
2022/05/20 00:20:50;;;;;;;;;;;24.50;57.20;;;;;;5000406;28;19917;-68
2022/05/20 00:23:16;;;;;;;;;;;24.50;57.20;;;;;;5002783;28;19917;-69
2022/05/20 00:25:47;;;;;;;;;;;24.40;57.10;;;;;;4981988;28;19914;-67
2022/05/20 00:28:13;;;;;;;;;;;24.40;57.00;;;;;;4981633;28;19918;-67
2022/05/20 00:30:39;;;;;;;;;;;24.40;57.10;;;;;;5003009;28;19925;-68
2022/05/20 00:33:04;;;;;;;;;;;24.40;57.00;;;;;;5005951;28;19913;-67
2022/05/20 00:35:30;;;;;;;;;;;24.40;57.30;;;;;;4985144;28;20322;-67
2022/05/20 00:37:55;;;;;;;;;;;24.40;57.00;;;;;;4981409;28;19918;-67
2022/05/20 00:40:22;;;;;;;;;;;24.50;57.20;;;;;;4992345;28;19917;-67
2022/05/20 00:42:48;;;;;;;;;;;24.40;57.00;;;;;;5000807;28;19959;-68
2022/05/20 00:45:14;;;;;;;;;;;24.40;57.20;;;;;;4986429;28;19914;-68
2022/05/20 00:47:41;;;;;;;;;;;24.40;57.20;;;;;;4982437;28;20174;-69
2022/05/20 00:50:16;;;;;;;;;;;24.40;57.10;;;;;;4988402;28;20699;-68
2022/05/20 00:52:42;;;;;;;;;;;24.40;57.00;;;;;;5002539;28;20008;-69
2022/05/20 00:55:10;;;;;;;;;;;24.40;57.10;;;;;;4973814;28;19918;-66
2022/05/20 00:57:40;;;;;;;;;;;24.40;57.10;;;;;;4980468;28;20344;-69
2022/05/20 01:00:08;;;;;;;;;;;24.40;57.10;;;;;;4970424;28;19922;-69
2022/05/20 01:02:33;;;;;;;;;;;24.40;57.00;;;;;;4984778;28;19948;-68
2022/05/20 01:05:03;;;;;;;;;;;24.40;57.00;;;;;;4990456;28;20379;-67
2022/05/20 01:07:29;;;;;;;;;;;24.40;57.00;;;;;;4965470;28;19914;-67
2022/05/20 01:09:55;;;;;;;;;;;24.40;57.00;;;;;;4984545;28;19925;-68
2022/05/20 01:12:21;;;;;;;;;;;24.40;57.00;;;;;;5001541;28;19917;-68
2022/05/20 01:14:47;;;;;;;;;;;24.40;57.00;;;;;;4997612;28;20344;-69
2022/05/20 01:17:12;;;;;;;;;;;24.40;57.10;;;;;;4979457;28;19957;-66
2022/05/20 01:19:46;;;;;;;;;;;24.40;57.00;;;;;;4983237;28;19918;-67
2022/05/20 01:22:12;;;;;;;;;;;24.40;57.30;;;;;;4982199;28;19972;-66
2022/05/20 01:24:37;;;;;;;;;;;24.40;57.00;;;;;;5000004;28;19918;-67
2022/05/20 01:27:03;;;;;;;;;;;24.40;56.90;;;;;;4980963;28;19921;-67
2022/05/20 01:29:28;;;;;;;;;;;24.40;57.20;;;;;;4982582;28;20064;-68
2022/05/20 01:31:54;;;;;;;;;;;24.40;57.10;;;;;;4998358;28;20388;-68
2022/05/20 01:34:20;;;;;;;;;;;24.50;57.00;;;;;;5002725;28;19921;-67
2022/05/20 01:36:45;;;;;;;;;;;24.40;57.10;;;;;;4982457;28;19964;-69
2022/05/20 01:39:11;;;;;;;;;;;24.40;57.10;;;;;;4964467;28;20404;-69
2022/05/20 01:41:36;;;;;;;;;;;24.40;57.00;;;;;;4994136;28;19967;-69
2022/05/20 01:44:11;;;;;;;;;;;24.40;57.00;;;;;;5002527;28;19924;-69
2022/05/20 01:46:37;;;;;;;;;;;24.40;57.00;;;;;;4984355;28;19957;-69
2022/05/20 01:49:06;;;;;;;;;;;24.40;57.30;;;;;;4981256;28;19945;-67
2022/05/20 01:51:33;;;;;;;;;;;24.40;57.10;;;;;;4993570;28;19960;-67
2022/05/20 01:54:01;;;;;;;;;;;24.40;57.00;;;;;;5000179;28;19925;-69
2022/05/20 01:56:29;;;;;;;;;;;24.40;57.10;;;;;;4977163;28;19913;-69
2022/05/20 01:59:03;;;;;;;;;;;24.40;57.00;;;;;;4963502;28;20011;-66
2022/05/20 02:01:33;;;;;;;;;;;24.40;57.10;;;;;;4986168;28;19925;-68
2022/05/20 02:04:12;;;;;;;;;;;24.40;57.10;;;;;;5000124;28;20185;-69
2022/05/20 02:06:41;;;;;;;;;;;24.40;57.00;;;;;;4965175;28;19913;-66
2022/05/20 02:09:17;;;;;;;;;;;24.40;57.00;;;;;;4964937;28;20516;-67
2022/05/20 02:11:46;;;;;;;;;;;24.40;57.00;;;;;;4973358;28;19956;-66
2022/05/20 02:14:30;;;;;;;;;;;24.40;57.00;;;;;;4986529;28;20403;-69
2022/05/20 02:17:09;;;;;;;;;;;24.40;57.00;;;;;;4992087;28;19918;-68
2022/05/20 02:19:38;;;;;;;;;;;24.40;57.00;;;;;;4983715;28;19945;-68
2022/05/20 02:22:05;;;;;;;;;;;24.40;57.10;;;;;;4997660;28;19917;-67
2022/05/20 02:24:31;;;;;;;;;;;24.40;57.10;;;;;;5002830;28;19914;-68
2022/05/20 02:26:59;;;;;;;;;;;24.40;57.10;;;;;;4992128;28;19922;-69
2022/05/20 02:29:26;;;;;;;;;;;24.40;57.00;;;;;;4983139;28;19914;-68
2022/05/20 02:31:55;;;;;;;;;;;24.40;57.00;;;;;;4995166;28;19918;-68
2022/05/20 02:34:21;;;;;;;;;;;24.40;57.00;;;;;;4987589;28;19924;-68
2022/05/20 02:36:46;;;;;;;;;;;24.40;57.10;;;;;;4978224;28;20016;-69
2022/05/20 02:39:15;;;;;;;;;;;24.40;57.00;;;;;;4983192;28;19925;-67
2022/05/20 02:41:46;;;;;;;;;;;24.30;57.10;;;;;;4991634;28;19945;-67
2022/05/20 02:44:12;;;;;;;;;;;24.40;57.10;;;;;;5005040;28;20392;-68
2022/05/20 02:46:38;;;;;;;;;;;24.40;57.10;;;;;;4997826;28;19925;-67
2022/05/20 02:49:03;;;;;;;;;;;24.30;57.10;;;;;;4967159;28;19917;-68
2022/05/20 02:51:29;;;;;;;;;;;24.40;57.10;;;;;;4989066;28;19913;-68
2022/05/20 02:53:54;;;;;;;;;;;24.40;57.10;;;;;;5004479;28;20032;-70
2022/05/20 02:56:20;;;;;;;;;;;24.40;57.10;;;;;;5002536;28;19925;-67
2022/05/20 03:04:13;;;;;;;;;;;24.30;57.00;;;;;;5003209;28;20328;-69
2022/05/20 03:06:40;;;;;;;;;;;24.30;57.00;;;;;;5000098;28;19922;-68
2022/05/20 03:09:06;;;;;;;;;;;24.30;57.10;;;;;;4982629;28;20648;-69
2022/05/20 03:11:32;;;;;;;;;;;24.30;57.10;;;;;;4985923;28;19924;-67
2022/05/20 03:13:57;;;;;;;;;;;24.30;57.10;;;;;;5002870;28;19968;-67
2022/05/20 03:16:22;;;;;;;;;;;24.30;57.00;;;;;;5003214;28;19940;-66
2022/05/20 03:18:48;;;;;;;;;;;24.30;57.10;;;;;;4982848;28;20388;-66
2022/05/20 03:21:13;;;;;;;;;;;24.30;57.10;;;;;;4984294;28;19922;-67
2022/05/20 03:23:39;;;;;;;;;;;24.30;57.00;;;;;;5001839;28;19913;-67
2022/05/20 03:26:04;;;;;;;;;;;24.30;57.10;;;;;;5003285;28;20455;-69
2022/05/20 03:28:30;;;;;;;;;;;24.30;57.00;;;;;;4986656;28;20574;-69
2022/05/20 03:31:02;;;;;;;;;;;24.30;57.00;;;;;;4983802;28;19924;-68
2022/05/20 03:33:27;;;;;;;;;;;24.30;57.00;;;;;;4978249;28;20004;-69
2022/05/20 03:35:54;;;;;;;;;;;24.30;57.00;;;;;;4989272;28;19924;-67
2022/05/20 03:38:20;;;;;;;;;;;24.30;57.00;;;;;;4997327;28;20079;-68
2022/05/20 03:40:45;;;;;;;;;;;24.30;57.00;;;;;;5001784;28;20452;-69
2022/05/20 03:43:11;;;;;;;;;;;24.30;57.00;;;;;;4990518;28;19918;-69
2022/05/20 03:45:39;;;;;;;;;;;24.40;57.10;;;;;;4982855;28;19925;-66
2022/05/20 03:48:05;;;;;;;;;;;24.30;57.00;;;;;;4993480;28;19982;-68
2022/05/20 03:50:30;;;;;;;;;;;24.30;57.00;;;;;;5002654;28;19921;-67
2022/05/20 03:52:56;;;;;;;;;;;24.30;57.00;;;;;;4977705;28;20340;-68
2022/05/20 03:55:21;;;;;;;;;;;24.30;57.00;;;;;;4983833;28;19941;-68
2022/05/20 03:57:47;;;;;;;;;;;24.30;57.00;;;;;;4989488;28;19975;-68
2022/05/20 04:00:12;;;;;;;;;;;24.30;57.00;;;;;;5002774;28;20689;-69
2022/05/20 04:02:38;;;;;;;;;;;24.40;57.00;;;;;;4997556;28;19961;-67
2022/05/20 04:05:03;;;;;;;;;;;24.30;57.00;;;;;;4981028;28;19968;-69
2022/05/20 04:07:29;;;;;;;;;;;24.30;57.00;;;;;;4993694;28;19925;-68
2022/05/20 04:09:55;;;;;;;;;;;24.30;57.10;;;;;;5001096;28;20476;-71
2022/05/20 04:12:27;;;;;;;;;;;24.30;57.00;;;;;;4983987;28;19924;-67
2022/05/20 04:14:53;;;;;;;;;;;24.30;57.00;;;;;;4985913;28;19921;-72
2022/05/20 04:17:18;;;;;;;;;;;24.30;57.10;;;;;;4982673;28;19918;-71
2022/05/20 04:19:44;;;;;;;;;;;24.30;57.10;;;;;;5000458;28;20389;-70
2022/05/20 04:22:09;;;;;;;;;;;24.30;57.20;;;;;;5002571;28;19917;-69
2022/05/20 04:24:35;;;;;;;;;;;24.30;57.10;;;;;;5002184;28;19928;-69
2022/05/20 04:27:00;;;;;;;;;;;24.30;57.00;;;;;;5002049;28;20004;-68
2022/05/20 04:29:26;;;;;;;;;;;24.30;57.00;;;;;;4986357;28;20417;-69
2022/05/20 04:31:51;;;;;;;;;;;24.30;57.00;;;;;;4984465;28;19914;-70
2022/05/20 04:34:17;;;;;;;;;;;24.30;57.30;;;;;;4996156;28;19929;-69
2022/05/20 04:36:43;;;;;;;;;;;24.40;57.70;;;;;;5004056;28;20040;-70
2022/05/20 04:39:08;;;;;;;;;;;24.40;57.70;;;;;;4988885;28;20406;-70
2022/05/20 04:47:02;;;;;;;;;;;24.40;58.60;;;;;;5001399;28;19976;-67
2022/05/20 04:49:28;;;;;;;;;;;24.40;58.60;;;;;;4987203;28;20360;-70
2022/05/20 04:51:53;;;;;;;;;;;24.40;58.70;;;;;;4982211;28;19993;-70
2022/05/20 04:57:03;;;;;;;;;;;24.40;58.60;;;;;;5000417;28;20059;-70
2022/05/20 04:59:32;;;;;;;;;;;24.40;58.60;;;;;;4990274;28;20387;-69
2022/05/20 05:01:58;;;;;;;;;;;24.50;58.70;;;;;;4965336;28;19921;-72
2022/05/20 05:04:23;;;;;;;;;;;24.50;58.60;;;;;;4994216;28;19919;-69
2022/05/20 05:06:49;;;;;;;;;;;24.50;58.50;;;;;;5002197;28;19931;-71
2022/05/20 05:09:14;;;;;;;;;;;24.50;58.60;;;;;;4992436;28;20317;-71
2022/05/20 05:11:40;;;;;;;;;;;24.40;58.50;;;;;;4983123;28;19953;-70
2022/05/20 05:14:07;;;;;;;;;;;24.40;58.40;;;;;;4971671;28;20296;-71
2022/05/20 05:16:33;;;;;;;;;;;24.40;58.50;;;;;;5001969;28;19917;-71
2022/05/20 05:18:59;;;;;;;;;;;24.30;58.60;;;;;;4995555;28;19921;-67
2022/05/20 05:21:24;;;;;;;;;;;24.30;58.40;;;;;;4983267;28;19913;-66
2022/05/20 05:23:50;;;;;;;;;;;24.30;58.00;;;;;;4984350;28;20353;-67
2022/05/20 05:26:15;;;;;;;;;;;24.30;57.90;;;;;;5002040;28;19914;-66
2022/05/20 05:28:40;;;;;;;;;;;24.30;57.60;;;;;;4982489;28;19971;-67
2022/05/20 05:31:06;;;;;;;;;;;24.30;57.60;;;;;;4982203;28;19922;-67
2022/05/20 05:33:31;;;;;;;;;;;24.30;57.40;;;;;;4980528;28;19918;-67
2022/05/20 05:35:57;;;;;;;;;;;24.30;57.30;;;;;;5000029;28;19956;-67
2022/05/20 05:38:22;;;;;;;;;;;24.20;57.30;;;;;;5001265;28;20319;-67
2022/05/20 05:40:49;;;;;;;;;;;24.20;57.30;;;;;;4986585;28;19917;-67
2022/05/20 05:43:14;;;;;;;;;;;24.20;57.30;;;;;;4982606;28;19922;-65
2022/05/20 05:45:40;;;;;;;;;;;24.10;57.40;;;;;;5007288;28;20300;-62
2022/05/20 05:48:06;;;;;;;;;;;23.90;58.00;;;;;;5008616;28;19952;-60
2022/05/20 05:50:32;;;;;;;;;;;23.80;57.90;;;;;;4994404;28;20501;-61
2022/05/20 05:53:06;;;;;;;;;;;23.90;57.90;;;;;;4989224;28;19914;-60
2022/05/20 05:55:31;;;;;;;;;;;23.80;57.90;;;;;;5002533;28;19918;-60
2022/05/20 05:57:57;;;;;;;;;;;23.80;57.80;;;;;;5009270;28;19920;-61
2022/05/20 06:00:22;;;;;;;;;;;23.70;57.70;;;;;;4996363;28;19914;-60
2022/05/20 06:02:48;;;;;;;;;;;23.70;58.00;;;;;;4989208;28;19926;-61
2022/05/20 06:05:13;;;;;;;;;;;23.70;58.30;;;;;;4998561;28;19956;-63
2022/05/20 06:07:39;;;;;;;;;;;23.70;58.30;;;;;;5009183;28;19914;-61
2022/05/20 06:10:04;;;;;;;;;;;23.70;58.40;;;;;;4991720;28;19964;-60
2022/05/20 06:12:31;;;;;;;;;;;23.40;58.50;;;;;;4987536;28;19918;-60
2022/05/20 06:14:57;;;;;;;;;;;23.50;58.80;;;;;;4994559;28;20490;-61
2022/05/20 06:17:22;;;;;;;;;;;23.60;58.30;;;;;;5008080;28;19918;-61
2022/05/20 06:19:47;;;;;;;;;;;23.60;58.30;;;;;;5004552;28;19918;-61
2022/05/20 06:22:13;;;;;;;;;;;23.60;58.50;;;;;;4988793;28;19941;-61
2022/05/20 06:24:38;;;;;;;;;;;23.60;58.50;;;;;;4989287;28;19948;-60
2022/05/20 06:27:04;;;;;;;;;;;23.20;59.20;;;;;;5008396;28;19914;-65
2022/05/20 06:29:30;;;;;;;;;;;23.30;59.80;;;;;;5007524;28;19949;-66
2022/05/20 06:31:55;;;;;;;;;;;23.50;59.40;;;;;;4988136;28;20704;-64
2022/05/20 06:34:21;;;;;;;;;;;23.50;58.80;;;;;;4987702;28;19918;-64
2022/05/20 06:39:49;;;;;;;;;;;23.50;59.10;;;;;;4997293;28;19979;-65
2022/05/20 06:42:14;;;;;;;;;;;23.30;59.60;;;;;;4986361;28;19917;-62
2022/05/20 06:44:40;;;;;;;;;;;22.80;60.90;;;;;;4986284;28;20313;-61
2022/05/20 06:47:05;;;;;;;;;;;23.00;60.90;;;;;;4982861;28;19917;-63
2022/05/20 06:49:31;;;;;;;;;;;23.00;60.30;;;;;;4988556;28;19925;-64
2022/05/20 06:51:56;;;;;;;;;;;23.20;60.40;;;;;;5005112;28;20389;-63
2022/05/20 06:54:22;;;;;;;;;;;23.10;60.30;;;;;;5008380;28;20622;-63
2022/05/20 06:56:47;;;;;;;;;;;23.00;60.00;;;;;;4989630;28;19917;-63
2022/05/20 06:59:13;;;;;;;;;;;22.90;59.90;;;;;;4982338;28;19980;-62
2022/05/20 07:01:38;;;;;;;;;;;22.90;60.00;;;;;;4989899;28;19941;-60
2022/05/20 07:04:04;;;;;;;;;;;22.90;60.40;;;;;;5003775;28;19923;-63
2022/05/20 07:06:34;;;;;;;;;;;22.90;60.30;;;;;;4987905;28;19914;-60
2022/05/20 07:08:59;;;;;;;;;;;23.00;60.20;;;;;;4983282;28;19926;-58
2022/05/20 07:11:25;;;;;;;;;;;23.10;60.10;;;;;;4971744;28;20479;-56
2022/05/20 07:13:55;;;;;;;;;;;23.10;60.00;;;;;;4970450;28;19914;-59
2022/05/20 07:16:21;;;;;;;;;;;23.10;60.40;;;;;;4978070;28;19917;-58
2022/05/20 07:18:46;;;;;;;;;;;23.10;60.10;;;;;;5003369;28;20598;-57
2022/05/20 07:21:11;;;;;;;;;;;23.10;60.20;;;;;;4992647;28;19914;-55
2022/05/20 07:23:37;;;;;;;;;;;23.10;60.10;;;;;;4990599;28;19918;-53
2022/05/20 07:26:03;;;;;;;;;;;23.10;59.90;;;;;;4980331;28;19924;-62
2022/05/20 07:28:28;;;;;;;;;;;23.10;60.30;;;;;;4983291;28;20421;-60
2022/05/20 07:30:54;;;;;;;;;;;23.10;60.50;;;;;;4988713;28;20625;-61
2022/05/20 07:33:20;;;;;;;;;;;23.10;60.80;;;;;;5003756;28;20363;-60
2022/05/20 07:35:45;;;;;;;;;;;23.00;60.70;;;;;;5003836;28;19919;-61
2022/05/20 07:38:10;;;;;;;;;;;23.00;60.50;;;;;;4984903;28;19914;-61
2022/05/20 07:40:36;;;;;;;;;;;23.00;60.60;;;;;;4984607;28;19922;-61
2022/05/20 07:43:01;;;;;;;;;;;23.10;60.70;;;;;;5003034;28;19987;-60
2022/05/20 07:45:27;;;;;;;;;;;23.00;61.00;;;;;;5003222;28;19925;-61
2022/05/20 07:47:52;;;;;;;;;;;23.00;61.30;;;;;;4988351;28;20095;-61
2022/05/20 07:50:18;;;;;;;;;;;23.00;61.40;;;;;;4984264;28;20569;-61
2022/05/20 07:55:29;;;;;;;;;;;23.10;61.00;;;;;;5001755;28;19940;-61
2022/05/20 07:57:54;;;;;;;;;;;23.10;60.70;;;;;;5001282;28;19921;-61
2022/05/20 08:00:20;;;;;;;;;;;23.10;60.50;;;;;;5000417;28;19922;-61
2022/05/20 08:02:46;;;;;;;;;;;23.00;60.20;;;;;;4987969;28;20025;-61
2022/05/20 08:05:11;;;;;;;;;;;23.00;60.10;;;;;;4984418;28;20057;-61
2022/05/20 08:07:38;;;;;;;;;;;23.00;60.00;;;;;;4994942;28;19913;-61
2022/05/20 08:10:05;;;;;;;;;;;23.00;60.00;;;;;;5001900;28;19914;-61
2022/05/20 08:12:30;;;;;;;;;;;23.00;60.10;;;;;;4990808;28;19918;-65
2022/05/20 08:14:55;;;;;;;;;;;23.00;60.20;;;;;;4984612;28;19925;-67
2022/05/20 08:17:21;;;;;;;;;;;23.00;60.40;;;;;;4992764;28;20365;-63
2022/05/20 08:19:47;;;;;;;;;;;23.00;60.40;;;;;;5003333;28;19925;-62
2022/05/20 08:22:14;;;;;;;;;;;23.00;60.30;;;;;;4997028;28;19924;-63
2022/05/20 08:24:39;;;;;;;;;;;23.10;60.20;;;;;;4984264;28;19917;-62
2022/05/20 08:27:05;;;;;;;;;;;23.00;60.20;;;;;;4988755;28;20351;-60
2022/05/20 08:29:33;;;;;;;;;;;23.00;60.00;;;;;;4989507;28;19945;-60
2022/05/20 08:31:59;;;;;;;;;;;23.10;60.00;;;;;;4990753;28;19913;-62
2022/05/20 08:34:24;;;;;;;;;;;23.20;59.80;;;;;;5003187;28;19924;-60
2022/05/20 08:36:49;;;;;;;;;;;23.20;59.50;;;;;;5001815;28;19988;-61
2022/05/20 08:39:15;;;;;;;;;;;23.30;59.50;;;;;;4983818;28;19921;-58
2022/05/20 08:41:41;;;;;;;;;;;23.30;59.30;;;;;;4983488;28;19913;-60
2022/05/20 08:44:11;;;;;;;;;;;23.30;59.20;;;;;;5004883;28;19968;-56
2022/05/20 08:46:37;;;;;;;;;;;23.40;59.20;;;;;;4993851;28;19928;-57
2022/05/20 08:49:02;;;;;;;;;;;23.40;59.20;;;;;;4986441;28;19917;-57
2022/05/20 08:51:28;;;;;;;;;;;23.40;59.10;;;;;;4972822;28;19924;-58
2022/05/20 08:53:54;;;;;;;;;;;23.40;59.30;;;;;;5003057;28;20028;-57
2022/05/20 08:56:20;;;;;;;;;;;23.40;59.20;;;;;;5001463;28;19922;-59
2022/05/20 08:58:53;;;;;;;;;;;23.40;59.20;;;;;;4991141;28;19918;-62
2022/05/20 09:01:25;;;;;;;;;;;23.40;59.20;;;;;;4982856;28;19917;-61
2022/05/20 09:03:51;;;;;;;;;;;23.40;59.20;;;;;;4992788;28;19933;-63
2022/05/20 09:06:16;;;;;;;;;;;23.40;59.20;;;;;;5003608;28;20400;-63
2022/05/20 09:08:41;;;;;;;;;;;23.40;59.00;;;;;;5000422;28;19917;-63
2022/05/20 09:11:11;;;;;;;;;;;23.40;59.60;;;;;;5002699;28;19926;-63
2022/05/20 09:16:32;;;;;;;;;;;23.40;58.80;;;;;;4917157;28;19918;-63
2022/05/20 09:19:13;;;;;;;;;;;23.40;58.80;;;;;;4993625;28;19925;-62
2022/05/20 09:21:39;;;;;;;;;;;23.40;58.80;;;;;;4994783;28;20651;-63
2022/05/20 09:24:06;;;;;;;;;;;23.40;58.80;;;;;;4987057;28;19918;-62
2022/05/20 09:26:32;;;;;;;;;;;23.40;58.70;;;;;;4981925;28;20657;-62
2022/05/20 09:29:18;;;;;;;;;;;23.40;58.70;;;;;;4992938;28;20012;-63
2022/05/20 09:31:45;;;;;;;;;;;23.40;58.70;;;;;;4991321;28;19917;-63
2022/05/20 09:34:26;;;;;;;;;;;23.40;58.70;;;;;;4987587;28;19921;-63
2022/05/20 09:37:05;;;;;;;;;;;23.40;58.70;;;;;;4982854;28;19914;-62
2022/05/20 09:39:38;;;;;;;;;;;23.40;58.70;;;;;;4997355;28;19968;-63
2022/05/20 09:42:17;;;;;;;;;;;23.40;58.70;;;;;;5001475;28;20328;-63
2022/05/20 09:44:44;;;;;;;;;;;23.40;58.60;;;;;;4978108;28;20258;-60
2022/05/20 09:47:28;;;;;;;;;;;23.40;58.70;;;;;;4986988;28;20623;-61
2022/05/20 09:49:53;;;;;;;;;;;23.40;58.80;;;;;;5000850;28;19917;-63
2022/05/20 09:52:22;;;;;;;;;;;23.50;58.80;;;;;;5000503;28;19928;-61
2022/05/20 09:54:48;;;;;;;;;;;23.50;58.80;;;;;;4986851;28;20396;-63
2022/05/20 09:57:15;;;;;;;;;;;23.40;58.70;;;;;;4981077;28;20580;-62
2022/05/20 10:00:00;;;;;;;;;;;23.50;58.70;;;;;;4995717;28;20208;-62
2022/05/20 10:02:30;;;;;;;;;;;23.50;58.80;;;;;;5001834;28;19975;-63
2022/05/20 10:05:05;;;;;;;;;;;23.50;58.90;;;;;;4985370;28;20001;-63
2022/05/20 10:07:35;;;;;;;;;;;23.50;58.80;;;;;;4982236;28;19921;-61
2022/05/20 10:10:05;;;;;;;;;;;23.50;58.70;;;;;;4995155;28;19936;-61
2022/05/20 10:12:31;;;;;;;;;;;23.50;58.80;;;;;;5000338;28;19945;-62
2022/05/20 10:14:57;;;;;;;;;;;23.50;58.70;;;;;;4986488;28;19929;-62
2022/05/20 10:17:32;;;;;;;;;;;23.50;58.90;;;;;;4982499;28;19914;-62
2022/05/20 10:20:14;;;;;;;;;;;23.50;58.80;;;;;;4994672;28;19921;-62
2022/05/20 10:22:45;;;;;;;;;;;23.50;58.90;;;;;;4999733;28;19917;-62
2022/05/20 10:25:24;;;;;;;;;;;23.50;59.30;;;;;;4987068;28;20559;-62
2022/05/20 10:28:10;;;;;;;;;;;23.50;59.10;;;;;;4982506;28;20056;-62
2022/05/20 10:33:28;;;;;;;;;;;23.50;59.10;;;;;;4978917;28;20401;-62
2022/05/20 10:36:02;;;;;;;;;;;23.50;59.00;;;;;;5002511;28;19921;-63
2022/05/20 10:38:37;;;;;;;;;;;23.50;59.10;;;;;;5004234;28;19921;-61
2022/05/20 10:41:05;;;;;;;;;;;23.60;59.20;;;;;;4985294;28;19914;-62
2022/05/20 10:49:36;;;;;;;;;;;23.50;59.20;;;;;;4972174;28;20084;-61
2022/05/20 10:52:05;;;;;;;;;;;23.50;59.20;;;;;;5004485;28;19914;-63
2022/05/20 10:54:45;;;;;;;;;;;23.50;59.40;;;;;;5000031;28;19914;-63
2022/05/20 10:57:32;;;;;;;;;;;23.50;59.30;;;;;;4985003;28;19922;-62
2022/05/20 11:00:05;;;;;;;;;;;23.50;59.30;;;;;;4990912;28;19949;-63
2022/05/20 11:02:51;;;;;;;;;;;23.50;59.30;;;;;;5005250;28;20462;-62
2022/05/20 11:05:35;;;;;;;;;;;23.50;59.40;;;;;;4992647;28;20347;-63
2022/05/20 11:08:19;;;;;;;;;;;23.50;59.50;;;;;;4985384;28;19918;-61
2022/05/20 11:10:52;;;;;;;;;;;23.50;59.50;;;;;;4997295;28;20351;-63
2022/05/20 11:13:36;;;;;;;;;;;23.50;59.40;;;;;;5003163;28;19920;-63
2022/05/20 11:16:14;;;;;;;;;;;23.60;59.50;;;;;;4989651;28;19921;-62
2022/05/20 11:18:50;;;;;;;;;;;23.60;59.40;;;;;;4983559;28;20304;-63
2022/05/20 11:21:34;;;;;;;;;;;23.60;59.30;;;;;;4999012;28;19987;-62
2022/05/20 11:24:19;;;;;;;;;;;23.60;59.30;;;;;;5004321;28;20424;-62
2022/05/20 11:26:47;;;;;;;;;;;23.60;59.40;;;;;;4985567;28;19914;-63
2022/05/20 11:29:22;;;;;;;;;;;23.60;59.50;;;;;;4982587;28;19918;-62
2022/05/20 11:31:53;;;;;;;;;;;23.60;59.60;;;;;;5001742;28;19917;-61
2022/05/20 11:34:38;;;;;;;;;;;23.60;59.70;;;;;;5003671;28;19913;-61
2022/05/20 11:37:10;;;;;;;;;;;23.60;59.50;;;;;;4963212;28;20695;-63
2022/05/20 11:39:54;;;;;;;;;;;23.60;59.40;;;;;;4978929;28;20980;-64
2022/05/20 11:42:25;;;;;;;;;;;23.60;59.30;;;;;;4983778;28;19917;-62
2022/05/20 11:44:52;;;;;;;;;;;23.60;59.30;;;;;;4985080;28;19925;-62
2022/05/20 11:47:18;;;;;;;;;;;23.60;59.30;;;;;;5002749;28;19988;-63
2022/05/20 11:49:53;;;;;;;;;;;23.60;59.40;;;;;;5003554;28;19913;-63
2022/05/20 11:52:18;;;;;;;;;;;23.70;59.60;;;;;;4965039;28;20433;-63
2022/05/20 11:54:47;;;;;;;;;;;23.70;59.60;;;;;;4965035;28;19929;-63
2022/05/20 11:57:25;;;;;;;;;;;23.60;59.60;;;;;;5000399;28;19920;-63
2022/05/20 11:59:56;;;;;;;;;;;23.70;59.60;;;;;;5001668;28;19921;-62
2022/05/20 12:02:21;;;;;;;;;;;23.70;59.50;;;;;;4982971;28;19926;-62
2022/05/20 12:04:47;;;;;;;;;;;23.70;60.10;;;;;;4982389;28;19924;-62
2022/05/20 12:07:13;;;;;;;;;;;23.70;59.60;;;;;;4999851;28;20024;-63
2022/05/20 12:09:40;;;;;;;;;;;23.70;59.50;;;;;;5001761;28;20296;-63
2022/05/20 12:12:06;;;;;;;;;;;23.70;59.60;;;;;;4986158;28;20332;-61
2022/05/20 12:14:47;;;;;;;;;;;23.70;59.60;;;;;;4966271;28;19914;-62
2022/05/20 12:17:13;;;;;;;;;;;23.70;59.70;;;;;;4997398;28;19924;-63
2022/05/20 12:25:36;;;;;;;;;;;23.70;59.50;;;;;;4982787;28;19937;-61
2022/05/20 12:28:03;;;;;;;;;;;23.80;59.80;;;;;;4964640;28;19944;-61
2022/05/20 12:30:35;;;;;;;;;;;23.70;59.70;;;;;;4964193;28;20018;-62
2022/05/20 12:33:00;;;;;;;;;;;23.70;59.60;;;;;;4984025;28;20008;-61
2022/05/20 12:35:27;;;;;;;;;;;23.70;59.50;;;;;;4983139;28;19918;-63
2022/05/20 12:37:54;;;;;;;;;;;23.70;59.50;;;;;;5002720;28;19917;-61
2022/05/20 12:40:25;;;;;;;;;;;23.80;59.40;;;;;;5003294;28;19949;-60
2022/05/20 12:42:58;;;;;;;;;;;23.80;59.20;;;;;;4985445;28;20015;-63
2022/05/20 12:45:24;;;;;;;;;;;23.80;59.30;;;;;;4984128;28;20182;-63
2022/05/20 12:47:49;;;;;;;;;;;23.80;59.30;;;;;;4998516;28;20092;-63
2022/05/20 12:50:15;;;;;;;;;;;23.80;59.30;;;;;;5002062;28;20258;-63
2022/05/20 12:52:45;;;;;;;;;;;23.80;59.40;;;;;;4987590;28;19917;-63
2022/05/20 12:55:10;;;;;;;;;;;23.80;59.30;;;;;;4973893;28;20339;-63
2022/05/20 12:57:36;;;;;;;;;;;23.80;59.30;;;;;;4991503;28;19917;-63
2022/05/20 13:00:03;;;;;;;;;;;23.80;59.20;;;;;;5002725;28;19917;-63
2022/05/20 13:02:31;;;;;;;;;;;23.80;59.20;;;;;;4989570;28;20005;-62
2022/05/20 13:05:02;;;;;;;;;;;23.80;59.40;;;;;;4983556;28;20008;-63
2022/05/20 13:07:28;;;;;;;;;;;23.90;59.50;;;;;;4994987;28;19961;-63
2022/05/20 13:09:53;;;;;;;;;;;23.80;59.50;;;;;;5002435;28;19989;-62
2022/05/20 13:12:20;;;;;;;;;;;23.90;59.30;;;;;;4993873;28;19929;-62
2022/05/20 13:14:48;;;;;;;;;;;23.80;59.30;;;;;;4983744;28;19980;-63
2022/05/20 13:17:14;;;;;;;;;;;23.90;59.20;;;;;;4989559;28;19925;-62
2022/05/20 13:19:39;;;;;;;;;;;23.90;59.30;;;;;;5002886;28;19921;-61
2022/05/20 13:22:05;;;;;;;;;;;23.90;59.40;;;;;;4997215;28;19918;-61
2022/05/20 13:24:33;;;;;;;;;;;23.90;59.40;;;;;;4982357;28;21732;-62
2022/05/20 13:27:12;;;;;;;;;;;23.90;59.40;;;;;;4988256;28;19921;-62
2022/05/20 13:29:38;;;;;;;;;;;23.90;59.30;;;;;;5002411;28;19914;-63
2022/05/20 13:32:12;;;;;;;;;;;23.90;59.40;;;;;;4996563;28;19914;-62
2022/05/20 13:34:44;;;;;;;;;;;23.90;59.20;;;;;;4972378;28;20052;-62
2022/05/20 13:37:10;;;;;;;;;;;23.90;59.10;;;;;;4988107;28;19917;-62
2022/05/20 13:39:35;;;;;;;;;;;23.90;59.20;;;;;;5000368;28;19940;-62
2022/05/20 13:42:01;;;;;;;;;;;23.90;59.10;;;;;;4999677;28;19922;-62
2022/05/20 13:44:26;;;;;;;;;;;23.90;59.10;;;;;;4982691;28;19926;-62
2022/05/20 13:49:36;;;;;;;;;;;23.90;59.10;;;;;;5002102;28;19924;-62
2022/05/20 13:52:05;;;;;;;;;;;23.90;59.10;;;;;;4983429;28;20016;-62
2022/05/20 13:54:30;;;;;;;;;;;23.90;59.80;;;;;;4981597;28;19913;-62
2022/05/20 13:56:56;;;;;;;;;;;24.00;59.60;;;;;;4982886;28;19914;-62
2022/05/20 13:59:30;;;;;;;;;;;24.00;59.20;;;;;;5001744;28;20459;-62
2022/05/20 14:02:10;;;;;;;;;;;24.00;59.20;;;;;;5002645;28;19949;-62
2022/05/20 14:04:43;;;;;;;;;;;24.00;59.20;;;;;;4964884;28;19926;-62
2022/05/20 14:07:10;;;;;;;;;;;24.00;59.20;;;;;;4969315;28;19918;-61
2022/05/20 14:09:39;;;;;;;;;;;24.00;59.20;;;;;;4988709;28;19920;-62
2022/05/20 14:12:04;;;;;;;;;;;24.00;59.10;;;;;;5007012;28;19992;-62
2022/05/20 14:14:30;;;;;;;;;;;24.00;59.20;;;;;;4986438;28;20443;-62
2022/05/20 14:16:57;;;;;;;;;;;24.00;59.10;;;;;;4985546;28;19918;-58
2022/05/20 14:19:26;;;;;;;;;;;24.00;59.00;;;;;;5002210;28;20208;-61
2022/05/20 14:21:53;;;;;;;;;;;24.00;59.00;;;;;;5002046;28;19921;-63
2022/05/20 14:24:19;;;;;;;;;;;24.00;59.00;;;;;;5007012;28;20134;-63
2022/05/20 14:26:48;;;;;;;;;;;24.00;59.00;;;;;;5006933;28;20573;-64
2022/05/20 14:29:33;;;;;;;;;;;24.00;59.00;;;;;;5003869;28;20094;-64
2022/05/20 14:31:58;;;;;;;;;;;24.00;59.00;;;;;;5004331;28;19918;-64
2022/05/20 14:34:25;;;;;;;;;;;24.00;59.00;;;;;;4990932;28;20337;-63
2022/05/20 14:36:50;;;;;;;;;;;24.00;58.80;;;;;;4985308;28;20381;-62
2022/05/20 14:39:17;;;;;;;;;;;24.00;58.90;;;;;;4999352;28;19971;-64
2022/05/20 14:41:43;;;;;;;;;;;24.00;58.80;;;;;;5005359;28;19964;-62
2022/05/20 14:44:15;;;;;;;;;;;24.10;58.80;;;;;;4983064;28;19997;-64
2022/05/20 14:49:30;;;;;;;;;;;24.00;58.90;;;;;;4997259;28;20380;-63
2022/05/20 14:51:56;;;;;;;;;;;24.10;58.90;;;;;;5001427;28;19940;-64
2022/05/20 14:54:36;;;;;;;;;;;24.00;58.70;;;;;;4991039;28;20392;-64
2022/05/20 14:57:18;;;;;;;;;;;24.10;58.80;;;;;;4983574;28;20369;-63
2022/05/20 14:59:43;;;;;;;;;;;24.10;58.80;;;;;;4992810;28;20300;-64
2022/05/20 15:02:09;;;;;;;;;;;24.10;58.70;;;;;;4985295;28;19924;-63
2022/05/20 15:04:34;;;;;;;;;;;24.10;58.80;;;;;;4998899;28;19976;-62